PHSF METAR and TAF | Updated Today

PHSF METAR

Bradshaw Army Airfield

Observation time: 51 min. ago

PHSF 061958Z 25008KT 10SM CLR 20/10 A3032 RMK AO2A SLP145

Need help? Read our tutorial on how to read METARs or read the parsed version below.

Bradshaw Army Airfield (PHSF) METAR

  • Weather conditions on Thu, 06 Oct 2022 19:58:00 +0000 (51 min. ago):
  • Present conditions: Dry
  • Clouds: Clear skies
  • Visibility: 16093 meters
  • Wind: 250 degrees at 8 knots
  • Temperature: 20 celsius
  • Dew point: 10 celsius
  • Pressure: 30.32 inHg
  • Remarks: AO2A SLP145


Useful to know...